KUCY/UCY METAR and TAF weather

Enter ICAO airport designator
Station Type Date Time Source
KUCY METAR 2020/10/20 17:10 UTC NOAA

KUCY 201710Z AUTO 00000KT 7SM BKN043 19/18 A3012 RMK A01


Station Type Date Time Source
KUCY Decoded METAR 2020/10/20 17:10 UTC NOAA

Station name not available
Oct 20, 2020 - 01:10 PM EDT / 2020.10.20 1710 UTC
Wind: Calm:0
Visibility: 7 mile(s):0
Sky conditions: mostly cloudy
Temperature: 66 F (19 C)
Dew Point: 64 F (18 C)
Relative Humidity: 93%
Pressure (altimeter): 30.12 in. Hg (1019 hPa)
ob: KUCY 201710Z AUTO 00000KT 7SM BKN043 19/18 A3012 RMK A01
cycle: 17

Station Type Date Time Source
KUCY TAF UTC NOAA

Error!

Example: see airport list